sensor_id;sensor_type;location;lat;lon;timestamp;pressure;altitude;pressure_sealevel;temperature;humidity
8049;BME280;20935;42.660;23.342;2023-06-04T16:03:04;95124.69;;;23.04;93.05
8049;BME280;20935;42.660;23.342;2023-06-04T16:05:52;95124.50;;;23.07;91.94
8049;BME280;20935;42.660;23.342;2023-06-04T16:08:37;95122.75;;;23.19;91.05
8049;BME280;20935;42.660;23.342;2023-06-04T16:11:22;95127.75;;;23.20;91.03
8049;BME280;20935;42.660;23.342;2023-06-04T16:14:08;95127.75;;;23.20;91.22
8049;BME280;20935;42.660;23.342;2023-06-04T16:16:53;95137.59;;;23.27;90.68
8049;BME280;20935;42.660;23.342;2023-06-04T16:19:39;95139.38;;;23.30;90.73
8049;BME280;20935;42.660;23.342;2023-06-04T16:22:24;95138.16;;;23.31;90.27
8049;BME280;20935;42.660;23.342;2023-06-04T16:25:09;95142.09;;;23.30;89.72
8049;BME280;20935;42.660;23.342;2023-06-04T16:27:55;95148.34;;;23.30;90.64
8049;BME280;20935;42.660;23.342;2023-06-04T16:30:40;95143.19;;;23.32;91.63
8049;BME280;20935;42.660;23.342;2023-06-04T16:33:25;95143.19;;;23.32;93.41
8049;BME280;20935;42.660;23.342;2023-06-04T16:36:13;95141.16;;;23.33;94.43
8049;BME280;20935;42.660;23.342;2023-06-04T16:38:58;95145.16;;;23.32;94.81
8049;BME280;20935;42.660;23.342;2023-06-04T16:41:43;95152.88;;;23.33;95.52
8049;BME280;20935;42.660;23.342;2023-06-04T16:44:28;95150.63;;;23.32;95.82
8049;BME280;20935;42.660;23.342;2023-06-04T16:47:14;95151.06;;;23.30;94.54
8049;BME280;20935;42.660;23.342;2023-06-04T16:49:59;95153.34;;;23.32;94.03
8049;BME280;20935;42.660;23.342;2023-06-04T16:52:46;95155.50;;;23.28;93.60
8049;BME280;20935;42.660;23.342;2023-06-04T16:55:32;95156.72;;;23.27;93.26
8049;BME280;20935;42.660;23.342;2023-06-04T16:58:17;95157.94;;;23.26;93.14
8049;BME280;20935;42.660;23.342;2023-06-04T17:01:02;95152.19;;;23.24;92.55
8049;BME280;20935;42.660;23.342;2023-06-04T17:03:48;95149.91;;;23.22;92.74
8049;BME280;20935;42.660;23.342;2023-06-04T17:06:33;95146.41;;;23.22;92.15
8049;BME280;20935;42.660;23.342;2023-06-04T17:09:21;95157.53;;;23.18;92.20
8049;BME280;20935;42.660;23.342;2023-06-04T17:12:06;95154.91;;;23.24;91.72
8049;BME280;20935;42.660;23.342;2023-06-04T17:14:52;95155.69;;;23.24;91.24
8049;BME280;20935;42.660;23.342;2023-06-04T17:17:39;95154.44;;;23.25;90.84
8049;BME280;20935;42.660;23.342;2023-06-04T17:20:24;95150.50;;;23.26;90.17
8049;BME280;20935;42.660;23.342;2023-06-04T17:23:19;95157.47;;;23.27;89.98
8049;BME280;20935;42.660;23.342;2023-06-04T17:26:05;95157.94;;;23.26;89.79
8049;BME280;20935;42.660;23.342;2023-06-04T17:28:50;95163.41;;;23.26;89.35
8049;BME280;20935;42.660;23.342;2023-06-04T17:31:35;95164.16;;;23.26;88.86
8049;BME280;20935;42.660;23.342;2023-06-04T17:34:20;95162.50;;;23.29;88.66
8049;BME280;20935;42.660;23.342;2023-06-04T17:37:05;95164.47;;;23.28;88.46
8049;BME280;20935;42.660;23.342;2023-06-04T17:39:50;95168.88;;;23.26;88.45
8049;BME280;20935;42.660;23.342;2023-06-04T17:42:38;95169.53;;;23.21;88.37
8049;BME280;20935;42.660;23.342;2023-06-04T17:45:30;95171.31;;;23.24;87.73
8049;BME280;20935;42.660;23.342;2023-06-04T17:48:15;95172.72;;;23.19;88.01
8049;BME280;20935;42.660;23.342;2023-06-04T17:51:00;95176.56;;;23.13;88.22
8049;BME280;20935;42.660;23.342;2023-06-04T17:53:47;95178.53;;;23.12;88.17
8049;BME280;20935;42.660;23.342;2023-06-04T17:56:32;95174.88;;;23.15;87.73
8049;BME280;20935;42.660;23.342;2023-06-04T17:59:19;95174.09;;;23.15;87.69
8049;BME280;20935;42.660;23.342;2023-06-04T18:02:04;95176.84;;;23.15;87.49
8049;BME280;20935;42.660;23.342;2023-06-04T18:04:49;95179.75;;;23.11;87.44
8049;BME280;20935;42.660;23.342;2023-06-04T18:07:35;95181.53;;;23.14;87.29
8049;BME280;20935;42.660;23.342;2023-06-04T18:10:20;95173.34;;;23.14;87.08
8049;BME280;20935;42.660;23.342;2023-06-04T18:13:05;95175.78;;;23.12;86.79
8049;BME280;20935;42.660;23.342;2023-06-04T18:15:52;95177.19;;;23.08;86.36
8049;BME280;20935;42.660;23.342;2023-06-04T18:18:38;95178.06;;;23.14;85.77
8049;BME280;20935;42.660;23.342;2023-06-04T18:21:24;95184.78;;;23.04;85.90
8049;BME280;20935;42.660;23.342;2023-06-04T18:24:09;95185.25;;;23.02;85.81
8049;BME280;20935;42.660;23.342;2023-06-04T18:26:54;95185.72;;;23.01;85.63
8049;BME280;20935;42.660;23.342;2023-06-04T18:29:39;95184.97;;;23.00;85.58
8049;BME280;20935;42.660;23.342;2023-06-04T18:32:26;95183.00;;;23.01;85.80
8049;BME280;20935;42.660;23.342;2023-06-04T18:35:11;95182.06;;;23.04;85.15
8049;BME280;20935;42.660;23.342;2023-06-04T18:37:56;95186.19;;;22.99;85.46
8049;BME280;20935;42.660;23.342;2023-06-04T18:40:42;95193.63;;;22.99;85.39
8049;BME280;20935;42.660;23.342;2023-06-04T18:43:27;95199.84;;;22.99;85.73
8049;BME280;20935;42.660;23.342;2023-06-04T18:46:12;95200.00;;;22.96;85.98
8049;BME280;20935;42.660;23.342;2023-06-04T18:48:59;95205.94;;;22.94;85.60
8049;BME280;20935;42.660;23.342;2023-06-04T18:51:44;95202.44;;;22.93;85.48
8049;BME280;20935;42.660;23.342;2023-06-04T18:54:30;95197.72;;;22.94;85.40
8049;BME280;20935;42.660;23.342;2023-06-04T18:57:15;95195.00;;;22.94;85.43
8049;BME280;20935;42.660;23.342;2023-06-04T19:00:00;95196.97;;;22.93;85.31
8049;BME280;20935;42.660;23.342;2023-06-04T19:02:50;95191.69;;;22.90;85.12
8049;BME280;20935;42.660;23.342;2023-06-04T19:05:37;95197.44;;;22.92;85.24
8049;BME280;20935;42.660;23.342;2023-06-04T19:08:22;95202.44;;;22.93;85.01
8049;BME280;20935;42.660;23.342;2023-06-04T19:11:08;95197.72;;;22.94;84.90
8049;BME280;20935;42.660;23.342;2023-06-04T19:13:53;95202.75;;;22.96;84.78
8049;BME280;20935;42.660;23.342;2023-06-04T19:16:38;95198.66;;;22.91;84.67
8049;BME280;20935;42.660;23.342;2023-06-04T19:19:23;95200.34;;;22.88;85.00
8049;BME280;20935;42.660;23.342;2023-06-04T19:22:09;95213.09;;;22.91;84.82
8049;BME280;20935;42.660;23.342;2023-06-04T19:24:54;95208.22;;;22.96;84.27
8049;BME280;20935;42.660;23.342;2023-06-04T19:27:39;95208.50;;;22.98;84.10
8049;BME280;20935;42.660;23.342;2023-06-04T19:30:26;95205.75;;;22.98;84.25
8049;BME280;20935;42.660;23.342;2023-06-04T19:33:11;95212.47;;;22.97;84.26
8049;BME280;20935;42.660;23.342;2023-06-04T19:35:56;95206.41;;;22.92;84.22
8049;BME280;20935;42.660;23.342;2023-06-04T19:38:42;95210.34;;;22.91;84.26
8049;BME280;20935;42.660;23.342;2023-06-04T19:41:28;95201.13;;;22.89;84.60
8049;BME280;20935;42.660;23.342;2023-06-04T19:44:13;95204.13;;;22.91;84.27
8049;BME280;20935;42.660;23.342;2023-06-04T19:46:58;95210.81;;;22.90;84.19
8049;BME280;20935;42.660;23.342;2023-06-04T19:49:43;95209.31;;;22.89;84.29
8049;BME280;20935;42.660;23.342;2023-06-04T19:52:29;95204.75;;;22.86;84.36
8049;BME280;20935;42.660;23.342;2023-06-04T19:55:16;95203.25;;;22.85;84.10
8049;BME280;20935;42.660;23.342;2023-06-04T19:58:01;95196.09;;;22.87;84.00
8049;BME280;20935;42.660;23.342;2023-06-04T20:00:46;95187.44;;;22.89;84.07
8049;BME280;20935;42.660;23.342;2023-06-04T20:03:33;95193.66;;;22.89;83.93
8049;BME280;20935;42.660;23.342;2023-06-04T20:06:19;95189.44;;;22.88;84.02
8049;BME280;20935;42.660;23.342;2023-06-04T20:09:05;95187.44;;;22.89;84.14
8049;BME280;20935;42.660;23.342;2023-06-04T20:11:52;95183.47;;;22.90;84.08
8049;BME280;20935;42.660;23.342;2023-06-04T20:14:37;95179.25;;;22.89;83.89
8049;BME280;20935;42.660;23.342;2023-06-04T20:17:24;95194.59;;;22.86;83.93
8049;BME280;20935;42.660;23.342;2023-06-04T20:20:09;95188.06;;;22.84;84.14
8049;BME280;20935;42.660;23.342;2023-06-04T20:22:55;95188.50;;;22.91;84.05
8049;BME280;20935;42.660;23.342;2023-06-04T20:25:40;95196.38;;;22.89;83.92
8049;BME280;20935;42.660;23.342;2023-06-04T20:28:26;95192.75;;;22.92;83.53
8049;BME280;20935;42.660;23.342;2023-06-04T20:31:11;95199.44;;;22.91;83.66
8049;BME280;20935;42.660;23.342;2023-06-04T20:33:57;95199.00;;;22.84;83.97
8049;BME280;20935;42.660;23.342;2023-06-04T20:36:42;95191.75;;;22.81;84.34
8049;BME280;20935;42.660;23.342;2023-06-04T20:39:27;95183.66;;;22.86;83.99
8049;BME280;20935;42.660;23.342;2023-06-04T20:42:14;95191.44;;;22.79;84.25
8049;BME280;20935;42.660;23.342;2023-06-04T20:45:01;95193.72;;;22.80;84.23
8049;BME280;20935;42.660;23.342;2023-06-04T20:47:46;95191.56;;;22.84;84.09
8049;BME280;20935;42.660;23.342;2023-06-04T20:50:31;95196.09;;;22.87;84.11
8049;BME280;20935;42.660;23.342;2023-06-04T20:53:16;95200.34;;;22.88;83.77
8049;BME280;20935;42.660;23.342;2023-06-04T20:56:01;95198.38;;;22.89;84.07
8049;BME280;20935;42.660;23.342;2023-06-04T20:58:46;95206.72;;;22.85;84.70
8049;BME280;20935;42.660;23.342;2023-06-04T21:01:32;95204.16;;;22.82;84.79
8049;BME280;20935;42.660;23.342;2023-06-04T21:04:18;95207.53;;;22.77;85.37
8049;BME280;20935;42.660;23.342;2023-06-04T21:07:03;95200.56;;;22.76;85.58
8049;BME280;20935;42.660;23.342;2023-06-04T21:09:48;95204.94;;;22.73;85.88
8049;BME280;20935;42.660;23.342;2023-06-04T21:12:33;95207.53;;;22.68;85.39
8049;BME280;20935;42.660;23.342;2023-06-04T21:15:19;95207.69;;;22.64;84.97
8049;BME280;20935;42.660;23.342;2023-06-04T21:18:05;95219.66;;;22.67;85.19
8049;BME280;20935;42.660;23.342;2023-06-04T21:20:50;95217.84;;;22.64;85.11
8049;BME280;20935;42.660;23.342;2023-06-04T21:23:35;95214.81;;;22.62;84.85
8049;BME280;20935;42.660;23.342;2023-06-04T21:26:20;95218.03;;;22.60;84.59
8049;BME280;20935;42.660;23.342;2023-06-04T21:29:05;95219.69;;;22.58;84.71
8049;BME280;20935;42.660;23.342;2023-06-04T21:31:50;95209.84;;;22.60;84.38
8049;BME280;20935;42.660;23.342;2023-06-04T21:34:37;95221.63;;;22.66;84.34
8049;BME280;20935;42.660;23.342;2023-06-04T21:37:22;95218.03;;;22.60;85.03
8049;BME280;20935;42.660;23.342;2023-06-04T21:40:08;95214.22;;;22.58;84.28
8049;BME280;20935;42.660;23.342;2023-06-04T21:42:53;95215.03;;;22.49;84.86
8049;BME280;20935;42.660;23.342;2023-06-04T21:45:38;95216.69;;;22.46;84.46
8049;BME280;20935;42.660;23.342;2023-06-04T21:48:23;95214.44;;;22.45;84.50
8049;BME280;20935;42.660;23.342;2023-06-04T21:51:10;95213.94;;;22.46;84.16
8049;BME280;20935;42.660;23.342;2023-06-04T21:53:55;95226.56;;;22.44;84.03
8049;BME280;20935;42.660;23.342;2023-06-04T21:56:40;95225.03;;;22.43;83.77
8049;BME280;20935;42.660;23.342;2023-06-04T21:59:25;95232.31;;;22.46;83.76
8049;BME280;20935;42.660;23.342;2023-06-04T22:02:10;95227.44;;;22.50;83.56
8049;BME280;20935;42.660;23.342;2023-06-04T22:04:55;95228.38;;;22.47;83.52
8049;BME280;20935;42.660;23.342;2023-06-04T22:07:42;95228.38;;;22.47;83.25
8049;BME280;20935;42.660;23.342;2023-06-04T22:10:27;95228.06;;;22.45;83.46
8049;BME280;20935;42.660;23.342;2023-06-04T22:13:12;95218.38;;;22.44;83.17
8049;BME280;20935;42.660;23.342;2023-06-04T22:15:57;95219.13;;;22.44;83.30
8049;BME280;20935;42.660;23.342;2023-06-04T22:18:42;95230.34;;;22.46;82.89
8049;BME280;20935;42.660;23.342;2023-06-04T22:21:27;95228.06;;;22.45;82.31
8049;BME280;20935;42.660;23.342;2023-06-04T22:24:14;95226.25;;;22.42;82.76
8049;BME280;20935;42.660;23.342;2023-06-04T22:26:59;95228.69;;;22.40;82.72
8049;BME280;20935;42.660;23.342;2023-06-04T22:29:44;95234.59;;;22.38;82.60
8049;BME280;20935;42.660;23.342;2023-06-04T22:32:29;95228.09;;;22.36;82.39
8049;BME280;20935;42.660;23.342;2023-06-04T22:35:14;95240.06;;;22.38;83.34
8049;BME280;20935;42.660;23.342;2023-06-04T22:37:59;95241.56;;;22.39;82.05
8049;BME280;20935;42.660;23.342;2023-06-04T22:40:46;95244.00;;;22.37;82.14
8049;BME280;20935;42.660;23.342;2023-06-04T22:43:31;95240.97;;;22.35;82.50
8049;BME280;20935;42.660;23.342;2023-06-04T22:46:16;95243.38;;;22.33;82.86
8049;BME280;20935;42.660;23.342;2023-06-04T22:49:01;95240.38;;;22.31;82.68
8049;BME280;20935;42.660;23.342;2023-06-04T22:51:46;95240.81;;;22.30;82.21
8049;BME280;20935;42.660;23.342;2023-06-04T22:54:31;95240.81;;;22.30;82.19
8049;BME280;20935;42.660;23.342;2023-06-04T22:57:17;95240.81;;;22.30;82.60
8049;BME280;20935;42.660;23.342;2023-06-04T23:00:03;95247.50;;;22.29;81.81
8049;BME280;20935;42.660;23.342;2023-06-04T23:02:48;95243.25;;;22.28;81.83
8049;BME280;20935;42.660;23.342;2023-06-04T23:05:33;95233.38;;;22.30;81.93
8049;BME280;20935;42.660;23.342;2023-06-04T23:08:19;95232.34;;;22.28;82.31
8049;BME280;20935;42.660;23.342;2023-06-04T23:11:04;95231.75;;;22.24;82.00
8049;BME280;20935;42.660;23.342;2023-06-04T23:13:50;95228.69;;;22.22;81.97
8049;BME280;20935;42.660;23.342;2023-06-04T23:16:35;95231.59;;;22.18;81.83
8049;BME280;20935;42.660;23.342;2023-06-04T23:19:21;95226.13;;;22.18;81.82
8049;BME280;20935;42.660;23.342;2023-06-04T23:22:06;95233.09;;;22.19;81.49
8049;BME280;20935;42.660;23.342;2023-06-04T23:24:51;95221.44;;;22.19;81.22
8049;BME280;20935;42.660;23.342;2023-06-04T23:27:37;95232.34;;;22.19;81.03
8049;BME280;20935;42.660;23.342;2023-06-04T23:30:24;95233.88;;;22.20;81.24
8049;BME280;20935;42.660;23.342;2023-06-04T23:33:08;95229.78;;;22.15;81.57
8049;BME280;20935;42.660;23.342;2023-06-04T23:35:53;95232.06;;;22.17;81.39
8049;BME280;20935;42.660;23.342;2023-06-04T23:38:38;95232.66;;;22.12;81.20
8049;BME280;20935;42.660;23.342;2023-06-04T23:41:24;95226.44;;;22.11;81.05
8049;BME280;20935;42.660;23.342;2023-06-04T23:44:09;95227.38;;;22.08;81.16
8049;BME280;20935;42.660;23.342;2023-06-04T23:46:56;95228.56;;;22.07;81.19
8049;BME280;20935;42.660;23.342;2023-06-04T23:49:41;95230.25;;;22.05;80.23
8049;BME280;20935;42.660;23.342;2023-06-04T23:52:27;95225.84;;;22.07;79.47
8049;BME280;20935;42.660;23.342;2023-06-04T23:55:12;95230.25;;;22.05;79.02
8049;BME280;20935;42.660;23.342;2023-06-04T23:57:58;95222.06;;;22.05;79.10
